createdAt,value
2023-10-16T00:00:42.467Z,5.20
2023-10-16T00:03:10.420Z,3.70
2023-10-16T00:05:39.692Z,4.70
2023-10-16T00:08:07.535Z,5.20
2023-10-16T00:10:36.786Z,4.70
2023-10-16T00:13:13.148Z,5.80
2023-10-16T00:15:50.939Z,5.90
2023-10-16T00:18:24.913Z,6.30
2023-10-16T00:20:53.431Z,5.60
2023-10-16T00:23:26.039Z,6.30
2023-10-16T00:25:53.597Z,6.10
2023-10-16T00:28:24.021Z,6.10
2023-10-16T00:30:52.101Z,5.30
2023-10-16T00:33:19.633Z,4.70
2023-10-16T00:35:47.098Z,6.00
2023-10-16T00:38:15.256Z,4.00
2023-10-16T00:40:46.327Z,4.00
2023-10-16T00:43:17.671Z,3.90
2023-10-16T00:46:07.627Z,2.90
2023-10-16T00:51:08.964Z,1.90
2023-10-16T00:53:39.716Z,2.50
2023-10-16T00:56:19.516Z,2.90
2023-10-16T00:58:48.510Z,2.00
2023-10-16T01:01:16.116Z,2.80
2023-10-16T01:03:44.057Z,2.30
2023-10-16T01:06:18.731Z,2.20
2023-10-16T01:08:46.644Z,2.20
2023-10-16T01:11:15.840Z,2.50
2023-10-16T01:13:43.389Z,1.70
2023-10-16T01:16:11.374Z,1.70
2023-10-16T01:18:39.127Z,1.60
2023-10-16T01:21:07.033Z,1.60
2023-10-16T01:23:36.094Z,1.80
2023-10-16T01:26:04.071Z,1.60
2023-10-16T01:28:31.634Z,1.40
2023-10-16T01:31:01.596Z,2.00
2023-10-16T01:33:31.817Z,2.00
2023-10-16T01:36:00.170Z,1.70
2023-10-16T01:38:28.459Z,2.20
2023-10-16T01:41:11.153Z,2.30
2023-10-16T01:43:38.772Z,1.60
2023-10-16T01:46:09.966Z,2.10
2023-10-16T01:48:43.674Z,2.00
2023-10-16T01:51:11.870Z,2.10
2023-10-16T01:53:40.842Z,2.00
2023-10-16T01:56:14.819Z,2.00
2023-10-16T01:58:45.188Z,2.20
2023-10-16T02:01:13.664Z,1.60
2023-10-16T02:03:47.604Z,1.80
2023-10-16T02:06:19.258Z,1.70
2023-10-16T02:08:49.045Z,1.70
2023-10-16T02:11:17.427Z,1.80
2023-10-16T02:13:45.163Z,2.30
2023-10-16T02:16:14.570Z,1.70
2023-10-16T02:18:42.214Z,2.40
2023-10-16T02:21:13.353Z,1.80
2023-10-16T02:23:44.874Z,1.60
2023-10-16T02:26:13.233Z,1.70
2023-10-16T02:28:47.794Z,1.90
2023-10-16T02:31:16.869Z,2.50
2023-10-16T02:33:54.939Z,2.00
2023-10-16T02:36:22.983Z,1.60
2023-10-16T02:38:51.546Z,1.60
2023-10-16T02:41:21.944Z,2.70
2023-10-16T02:43:52.475Z,1.70
2023-10-16T02:46:22.945Z,2.10
2023-10-16T02:48:54.320Z,1.80
2023-10-16T02:51:21.860Z,1.90
2023-10-16T02:53:52.381Z,1.50
2023-10-16T02:56:23.557Z,1.90
2023-10-16T02:58:56.351Z,1.90
2023-10-16T03:01:24.076Z,1.90
2023-10-16T03:03:53.937Z,1.70
2023-10-16T03:06:21.598Z,1.80
2023-10-16T03:08:52.459Z,2.20
2023-10-16T03:11:22.091Z,1.90
2023-10-16T03:13:52.568Z,2.40
2023-10-16T03:16:28.421Z,3.20
2023-10-16T03:19:10.854Z,2.90
2023-10-16T03:21:41.371Z,4.50
2023-10-16T03:26:43.741Z,3.20
2023-10-16T03:29:11.808Z,3.40
2023-10-16T03:31:41.386Z,2.70
2023-10-16T03:34:12.993Z,2.90
2023-10-16T03:36:42.775Z,2.70
2023-10-16T03:39:13.395Z,2.50
2023-10-16T03:41:40.983Z,2.40
2023-10-16T03:44:09.194Z,2.10
2023-10-16T03:46:39.719Z,2.50
2023-10-16T03:49:10.320Z,3.00
2023-10-16T03:54:07.524Z,3.30
2023-10-16T03:56:37.167Z,2.80
2023-10-16T03:59:04.830Z,2.80
2023-10-16T04:01:37.137Z,2.80
2023-10-16T04:04:08.580Z,3.80
2023-10-16T04:06:41.318Z,4.30
2023-10-16T04:09:11.046Z,4.40
2023-10-16T04:11:38.635Z,6.10
2023-10-16T04:14:10.485Z,8.60
2023-10-16T04:16:56.605Z,6.60
2023-10-16T04:19:36.828Z,5.40
2023-10-16T04:22:10.735Z,5.00
2023-10-16T04:24:47.664Z,5.50
2023-10-16T04:27:18.220Z,4.50
2023-10-16T04:30:01.058Z,3.30
2023-10-16T04:32:34.786Z,3.40
2023-10-16T04:35:25.159Z,4.80
2023-10-16T04:38:18.666Z,4.50
2023-10-16T04:41:11.517Z,3.00
2023-10-16T04:43:42.434Z,2.90
2023-10-16T04:46:22.414Z,3.10
2023-10-16T04:48:50.091Z,3.40
2023-10-16T04:54:00.186Z,4.30
2023-10-16T04:56:46.781Z,4.80
2023-10-16T04:59:34.496Z,5.80
2023-10-16T05:02:11.748Z,5.40
2023-10-16T05:04:57.834Z,5.60
2023-10-16T05:07:44.576Z,6.40
2023-10-16T05:10:41.145Z,5.80
2023-10-16T05:13:36.935Z,5.50
2023-10-16T05:16:23.131Z,6.20
2023-10-16T05:19:04.625Z,6.00
2023-10-16T05:21:52.037Z,6.30
2023-10-16T05:24:38.561Z,5.80
2023-10-16T05:27:24.964Z,5.80
2023-10-16T05:30:11.181Z,4.60
2023-10-16T05:33:00.546Z,6.00
2023-10-16T05:35:46.921Z,5.00
2023-10-16T05:38:33.139Z,4.80
2023-10-16T05:41:39.135Z,5.50
2023-10-16T05:44:26.117Z,5.70
2023-10-16T05:47:12.611Z,5.50
2023-10-16T05:49:58.716Z,5.90
2023-10-16T05:52:48.388Z,5.00
2023-10-16T05:55:34.649Z,4.80
2023-10-16T05:58:20.784Z,4.10
2023-10-16T06:01:11.666Z,4.60
2023-10-16T06:03:58.158Z,5.60
2023-10-16T06:06:46.000Z,5.20
2023-10-16T06:09:32.298Z,4.90
2023-10-16T06:12:18.630Z,5.70
2023-10-16T06:14:46.690Z,5.70
2023-10-16T06:17:17.333Z,6.00
2023-10-16T06:19:45.270Z,5.80
2023-10-16T06:22:13.292Z,5.30
2023-10-16T06:24:46.468Z,5.80
2023-10-16T06:27:21.592Z,6.10
2023-10-16T06:29:52.424Z,6.20
2023-10-16T06:32:27.587Z,6.00
2023-10-16T06:35:02.478Z,5.50
2023-10-16T06:37:32.878Z,5.30
2023-10-16T06:40:02.800Z,5.50
2023-10-16T06:42:30.966Z,4.00
2023-10-16T06:45:20.827Z,5.30
2023-10-16T06:47:51.718Z,5.90
2023-10-16T06:50:25.183Z,5.50
2023-10-16T06:53:02.792Z,6.10
2023-10-16T06:55:30.633Z,5.40
2023-10-16T06:57:58.422Z,3.80
2023-10-16T07:00:27.268Z,6.10
2023-10-16T07:02:56.186Z,5.30
2023-10-16T07:05:46.804Z,5.80
2023-10-16T07:08:19.079Z,6.20
2023-10-16T07:10:53.552Z,5.40
2023-10-16T07:13:28.856Z,5.40
2023-10-16T07:16:01.851Z,7.00
2023-10-16T07:18:33.300Z,5.50
2023-10-16T07:21:08.807Z,7.30
2023-10-16T07:23:37.330Z,6.70
2023-10-16T07:26:06.725Z,4.80
2023-10-16T07:28:34.791Z,5.10
2023-10-16T07:31:04.620Z,5.70
2023-10-16T07:33:33.357Z,5.30
2023-10-16T07:36:01.155Z,6.50
2023-10-16T07:38:29.780Z,5.50
2023-10-16T07:40:59.138Z,5.50
2023-10-16T07:43:30.325Z,5.60
2023-10-16T07:46:12.321Z,6.10
2023-10-16T07:48:45.536Z,5.10
2023-10-16T07:51:13.771Z,5.80
2023-10-16T07:53:41.368Z,5.50
2023-10-16T07:56:27.362Z,5.50
2023-10-16T07:59:08.514Z,6.00
2023-10-16T08:01:38.233Z,4.70
2023-10-16T08:04:20.803Z,6.30
2023-10-16T08:06:49.302Z,5.00
2023-10-16T08:09:26.409Z,6.20
2023-10-16T08:12:00.394Z,4.80
2023-10-16T08:14:34.019Z,4.90
2023-10-16T08:17:16.087Z,5.10
2023-10-16T08:19:47.904Z,4.80
2023-10-16T08:22:15.603Z,5.40
2023-10-16T08:24:45.418Z,4.90
2023-10-16T08:27:24.877Z,5.30
2023-10-16T08:29:55.104Z,4.80
2023-10-16T08:35:11.010Z,6.10
2023-10-16T08:37:51.362Z,5.50
2023-10-16T08:40:25.384Z,6.60
2023-10-16T08:43:02.952Z,4.20
2023-10-16T08:45:33.862Z,4.90
2023-10-16T08:48:07.973Z,5.90
2023-10-16T08:50:53.901Z,3.60
2023-10-16T08:53:34.973Z,4.60
2023-10-16T08:56:11.078Z,5.40
2023-10-16T08:58:43.594Z,4.50
2023-10-16T09:01:13.662Z,4.10
2023-10-16T09:03:58.946Z,4.80
2023-10-16T09:06:26.920Z,4.60
2023-10-16T09:08:56.237Z,4.00
2023-10-16T09:11:23.937Z,3.90
2023-10-16T09:13:54.787Z,4.20
2023-10-16T09:16:24.934Z,5.40
2023-10-16T09:18:54.793Z,4.40
2023-10-16T09:21:26.114Z,3.60
2023-10-16T09:24:00.003Z,3.10
2023-10-16T09:26:33.718Z,4.40
2023-10-16T09:29:17.061Z,4.40
2023-10-16T09:31:48.663Z,4.00
2023-10-16T09:34:20.609Z,4.10
2023-10-16T09:36:50.584Z,3.50
2023-10-16T09:39:18.636Z,2.90
2023-10-16T09:42:01.085Z,3.30
2023-10-16T09:44:40.994Z,2.20
2023-10-16T09:47:27.439Z,2.70
2023-10-16T09:50:02.366Z,2.70
2023-10-16T09:52:33.039Z,2.70
2023-10-16T09:55:01.498Z,2.80
2023-10-16T09:57:32.738Z,2.30
2023-10-16T10:00:19.354Z,2.30
2023-10-16T10:02:46.935Z,2.80
2023-10-16T10:05:15.283Z,2.80
2023-10-16T10:07:50.258Z,3.70
2023-10-16T10:10:34.168Z,3.00
2023-10-16T10:13:12.071Z,3.40
2023-10-16T10:15:50.198Z,2.50
2023-10-16T10:18:47.663Z,2.10
2023-10-16T10:21:19.850Z,2.20
2023-10-16T10:23:48.717Z,1.90
2023-10-16T10:26:20.252Z,2.00
2023-10-16T10:29:13.752Z,2.90
2023-10-16T10:31:42.822Z,2.70
2023-10-16T10:34:30.418Z,2.70
2023-10-16T10:37:01.378Z,2.60
2023-10-16T10:39:31.992Z,1.80
2023-10-16T10:42:05.120Z,2.90
2023-10-16T10:44:46.187Z,3.00
2023-10-16T10:47:25.664Z,2.80
2023-10-16T10:49:54.034Z,2.30
2023-10-16T10:52:21.835Z,1.60
2023-10-16T10:55:02.555Z,3.50
2023-10-16T10:57:30.324Z,2.50
2023-10-16T10:59:58.149Z,2.70
2023-10-16T11:02:31.739Z,2.50
2023-10-16T11:05:02.569Z,2.80
2023-10-16T11:07:41.381Z,2.20
2023-10-16T11:10:09.196Z,2.70
2023-10-16T11:12:38.342Z,2.10
2023-10-16T11:15:28.107Z,2.40
2023-10-16T11:17:58.963Z,1.60
2023-10-16T11:20:30.920Z,2.00
2023-10-16T11:22:59.084Z,1.90
2023-10-16T11:25:54.673Z,2.20
2023-10-16T11:28:23.788Z,3.00
2023-10-16T11:30:55.544Z,2.50
2023-10-16T11:33:57.156Z,1.70
2023-10-16T11:36:42.048Z,2.30
2023-10-16T11:39:21.284Z,2.10
2023-10-16T11:41:50.511Z,1.60
2023-10-16T11:44:18.550Z,1.80
2023-10-16T11:46:47.816Z,2.30
2023-10-16T11:49:15.890Z,2.10
2023-10-16T11:51:52.647Z,2.00
2023-10-16T11:54:27.825Z,1.40
2023-10-16T11:56:59.483Z,1.70
2023-10-16T11:59:28.429Z,1.70
2023-10-16T12:02:04.089Z,1.50
2023-10-16T12:04:33.475Z,1.90
2023-10-16T12:07:01.685Z,1.80
2023-10-16T12:09:38.447Z,1.30
2023-10-16T12:12:07.942Z,1.10
2023-10-16T12:14:39.201Z,1.40
2023-10-16T12:17:07.926Z,1.50
2023-10-16T12:19:36.222Z,1.60
2023-10-16T12:22:03.825Z,1.70
2023-10-16T12:24:31.516Z,2.10
2023-10-16T12:26:59.265Z,1.50
2023-10-16T12:29:27.028Z,1.60
2023-10-16T12:31:56.851Z,1.70
2023-10-16T12:34:25.457Z,1.90
2023-10-16T12:36:58.860Z,2.10
2023-10-16T12:39:26.805Z,2.10
2023-10-16T12:41:57.475Z,2.00
2023-10-16T12:44:28.854Z,2.40
2023-10-16T12:46:57.430Z,2.60
2023-10-16T12:49:27.230Z,1.90
2023-10-16T12:51:55.407Z,2.20
2023-10-16T12:54:26.512Z,1.80
2023-10-16T12:56:55.373Z,2.50
2023-10-16T12:59:22.885Z,2.70
2023-10-16T13:01:53.919Z,2.10
2023-10-16T13:04:21.745Z,2.20
2023-10-16T13:06:50.586Z,1.90
2023-10-16T13:09:19.609Z,2.20
2023-10-16T13:11:47.820Z,3.40
2023-10-16T13:14:15.796Z,3.60
2023-10-16T13:16:44.993Z,2.50
2023-10-16T13:19:12.796Z,3.40
2023-10-16T13:21:43.333Z,2.20
2023-10-16T13:24:12.669Z,2.80
2023-10-16T13:26:41.248Z,4.00
2023-10-16T13:29:10.218Z,3.30
2023-10-16T13:31:38.657Z,3.50
2023-10-16T13:34:06.317Z,3.90
2023-10-16T13:36:37.639Z,5.80
2023-10-16T13:39:12.222Z,3.70
2023-10-16T13:41:52.122Z,3.20
2023-10-16T13:44:20.959Z,3.90
2023-10-16T13:46:48.467Z,4.60
2023-10-16T13:49:17.431Z,4.30
2023-10-16T13:51:48.911Z,4.00
2023-10-16T13:54:16.882Z,4.40
2023-10-16T13:56:47.760Z,4.30
2023-10-16T13:59:15.930Z,4.60
2023-10-16T14:01:47.068Z,3.00
2023-10-16T14:04:15.990Z,2.50
2023-10-16T14:06:53.213Z,6.60
2023-10-16T14:09:30.433Z,2.90
2023-10-16T14:12:00.199Z,2.70
2023-10-16T14:14:29.239Z,3.60
2023-10-16T14:17:05.962Z,2.50
2023-10-16T14:19:34.100Z,2.80
2023-10-16T14:22:08.056Z,2.90
2023-10-16T14:24:36.336Z,2.90
2023-10-16T14:27:06.281Z,2.20
2023-10-16T14:29:35.234Z,2.00
2023-10-16T14:32:04.100Z,2.30
2023-10-16T14:34:32.370Z,2.60
2023-10-16T14:36:59.906Z,3.00
2023-10-16T14:39:30.772Z,2.70
2023-10-16T14:42:03.241Z,2.30
2023-10-16T14:44:31.048Z,2.60
2023-10-16T14:46:58.998Z,2.80
2023-10-16T14:49:26.751Z,2.50
2023-10-16T14:51:55.163Z,2.70
2023-10-16T14:54:23.308Z,2.70
2023-10-16T14:56:53.007Z,3.10
2023-10-16T14:59:26.686Z,2.20
2023-10-16T15:01:55.915Z,2.30
2023-10-16T15:04:27.499Z,2.30
2023-10-16T15:07:03.120Z,2.60
2023-10-16T15:09:33.309Z,2.40
2023-10-16T15:12:01.343Z,2.90
2023-10-16T15:14:30.607Z,2.40
2023-10-16T15:16:58.443Z,2.00
2023-10-16T15:19:28.584Z,3.00
2023-10-16T15:21:56.457Z,2.60
2023-10-16T15:24:24.286Z,2.10
2023-10-16T15:26:51.835Z,2.10
2023-10-16T15:29:19.591Z,2.50
2023-10-16T15:31:47.439Z,3.20
2023-10-16T15:34:15.342Z,3.80
2023-10-16T15:36:50.262Z,2.40
2023-10-16T15:39:18.238Z,2.90
2023-10-16T15:41:47.010Z,2.80
2023-10-16T15:44:14.902Z,2.30
2023-10-16T15:46:42.862Z,3.40
2023-10-16T15:49:10.726Z,2.70
2023-10-16T15:51:38.738Z,3.20
2023-10-16T15:54:07.044Z,3.10
2023-10-16T15:56:38.048Z,3.00
2023-10-16T15:59:05.604Z,3.20
2023-10-16T16:01:34.746Z,3.70
2023-10-16T16:04:05.030Z,3.40
2023-10-16T16:06:34.865Z,3.40
2023-10-16T16:09:05.006Z,3.80
2023-10-16T16:11:33.250Z,3.50
2023-10-16T16:14:01.026Z,4.20
2023-10-16T16:16:32.024Z,3.90
2023-10-16T16:18:59.974Z,3.30
2023-10-16T16:21:27.696Z,4.10
2023-10-16T16:23:55.754Z,6.80
2023-10-16T16:26:23.413Z,5.50
2023-10-16T16:28:51.856Z,5.50
2023-10-16T16:31:21.765Z,4.50
2023-10-16T16:33:52.660Z,4.00
2023-10-16T16:36:22.191Z,5.20
2023-10-16T16:38:56.953Z,5.10
2023-10-16T16:41:26.441Z,4.10
2023-10-16T16:43:55.662Z,4.00
2023-10-16T16:46:25.057Z,6.60
2023-10-16T16:48:52.673Z,7.90
2023-10-16T16:51:20.298Z,7.60
2023-10-16T16:53:51.235Z,4.30
2023-10-16T16:56:22.936Z,4.70
2023-10-16T16:58:55.186Z,5.10
2023-10-16T17:01:22.774Z,5.60
2023-10-16T17:03:52.152Z,4.70
2023-10-16T17:06:19.877Z,5.00
2023-10-16T17:08:47.610Z,4.80
2023-10-16T17:11:17.249Z,6.30
2023-10-16T17:13:45.135Z,7.60
2023-10-16T17:16:13.003Z,6.00
2023-10-16T17:18:40.760Z,5.80
2023-10-16T17:21:10.302Z,5.30
2023-10-16T17:23:39.303Z,6.30
2023-10-16T17:26:11.586Z,5.70
2023-10-16T17:28:39.189Z,6.30
2023-10-16T17:31:06.840Z,7.60
2023-10-16T17:33:35.537Z,7.20
2023-10-16T17:36:04.250Z,8.60
2023-10-16T17:38:37.818Z,7.50
2023-10-16T17:41:05.635Z,7.00
2023-10-16T17:43:36.321Z,6.00
2023-10-16T17:46:04.065Z,7.90
2023-10-16T17:48:31.843Z,5.70
2023-10-16T17:51:00.057Z,6.80
2023-10-16T17:53:29.101Z,6.90
2023-10-16T17:55:58.168Z,6.50
2023-10-16T17:58:26.984Z,7.00
2023-10-16T18:00:57.752Z,6.90
2023-10-16T18:03:30.791Z,6.70
2023-10-16T18:06:00.879Z,7.40
2023-10-16T18:08:28.558Z,7.00
2023-10-16T18:10:56.148Z,7.60
2023-10-16T18:13:24.110Z,6.50
2023-10-16T18:15:55.295Z,6.70
2023-10-16T18:18:24.032Z,7.90
2023-10-16T18:20:52.073Z,7.10
2023-10-16T18:23:20.838Z,7.30
2023-10-16T18:25:48.652Z,6.90
2023-10-16T18:28:16.302Z,7.20
2023-10-16T18:30:44.463Z,6.30
2023-10-16T18:33:13.062Z,6.00
2023-10-16T18:35:42.493Z,7.00
2023-10-16T18:38:15.329Z,7.00
2023-10-16T18:40:43.020Z,6.40
2023-10-16T18:43:11.079Z,6.10
2023-10-16T18:45:43.737Z,5.60
2023-10-16T18:48:11.494Z,5.60
2023-10-16T18:50:39.353Z,6.80
2023-10-16T18:53:14.165Z,5.90
2023-10-16T18:55:42.235Z,5.80
2023-10-16T18:58:10.850Z,6.50
2023-10-16T19:00:38.648Z,6.60
2023-10-16T19:03:07.493Z,6.00
2023-10-16T19:05:37.746Z,6.40
2023-10-16T19:08:07.056Z,7.40
2023-10-16T19:10:36.083Z,6.00
2023-10-16T19:13:05.409Z,5.20
2023-10-16T19:15:34.605Z,5.90
2023-10-16T19:18:02.547Z,6.20
2023-10-16T19:20:30.657Z,5.30
2023-10-16T19:22:58.313Z,6.00
2023-10-16T19:25:27.131Z,6.10
2023-10-16T19:27:54.875Z,6.80
2023-10-16T19:30:22.552Z,5.50
2023-10-16T19:32:50.170Z,5.50
2023-10-16T19:35:18.140Z,5.40
2023-10-16T19:37:46.041Z,5.40
2023-10-16T19:40:17.160Z,5.20
2023-10-16T19:42:46.028Z,4.70
2023-10-16T19:45:14.603Z,5.60
2023-10-16T19:47:42.985Z,4.90
2023-10-16T19:50:11.533Z,6.50
2023-10-16T19:52:45.242Z,4.80
2023-10-16T19:55:19.377Z,3.90
2023-10-16T19:57:47.227Z,4.20
2023-10-16T20:00:18.914Z,4.30
2023-10-16T20:02:51.110Z,4.60
2023-10-16T20:05:20.436Z,4.10
2023-10-16T20:07:48.831Z,4.60
2023-10-16T20:10:17.413Z,3.80
2023-10-16T20:12:46.863Z,4.60
2023-10-16T20:15:17.466Z,4.10
2023-10-16T20:17:45.775Z,4.30
2023-10-16T20:20:40.751Z,3.60
2023-10-16T20:23:11.208Z,3.90
2023-10-16T20:25:45.384Z,3.80
2023-10-16T20:28:14.791Z,4.30
2023-10-16T20:30:48.270Z,5.30
2023-10-16T20:33:17.825Z,3.80
2023-10-16T20:35:46.875Z,4.30
2023-10-16T20:38:19.253Z,3.90
2023-10-16T20:40:47.314Z,4.60
2023-10-16T20:43:14.896Z,4.40
2023-10-16T20:45:42.961Z,4.60
2023-10-16T20:48:12.126Z,5.10
2023-10-16T20:50:39.846Z,4.20
2023-10-16T20:53:07.311Z,4.90
2023-10-16T20:55:35.983Z,4.60
2023-10-16T20:58:05.294Z,5.00
2023-10-16T21:00:33.401Z,4.60
2023-10-16T21:03:07.682Z,4.70
2023-10-16T21:05:37.094Z,4.70
2023-10-16T21:08:05.714Z,4.90
2023-10-16T21:10:33.441Z,4.30
2023-10-16T21:13:04.510Z,5.00
2023-10-16T21:15:34.915Z,5.30
2023-10-16T21:18:02.700Z,5.10
2023-10-16T21:20:30.438Z,4.70
2023-10-16T21:22:58.221Z,5.20
2023-10-16T21:25:26.007Z,5.30
2023-10-16T21:27:56.410Z,4.80
2023-10-16T21:30:24.613Z,4.70
2023-10-16T21:32:53.481Z,4.90
2023-10-16T21:35:26.372Z,5.40
2023-10-16T21:37:54.409Z,4.70
2023-10-16T21:40:25.037Z,5.50
2023-10-16T21:42:53.196Z,4.90
2023-10-16T21:45:22.528Z,4.70
2023-10-16T21:47:51.427Z,5.60
2023-10-16T21:50:19.912Z,5.50
2023-10-16T21:52:47.475Z,5.40
2023-10-16T21:55:15.088Z,5.90
2023-10-16T21:57:42.712Z,5.00
2023-10-16T22:00:28.715Z,5.10
2023-10-16T22:02:59.730Z,5.30
2023-10-16T22:05:27.501Z,5.10
2023-10-16T22:07:57.821Z,6.80
2023-10-16T22:10:25.410Z,5.10
2023-10-16T22:12:53.364Z,5.10
2023-10-16T22:15:21.149Z,4.80
2023-10-16T22:17:50.440Z,5.10
2023-10-16T22:20:20.004Z,5.40
2023-10-16T22:22:47.804Z,5.00
2023-10-16T22:25:17.843Z,4.90
2023-10-16T22:27:45.503Z,4.90
2023-10-16T22:30:15.888Z,4.60
2023-10-16T22:32:44.052Z,4.60
2023-10-16T22:35:12.479Z,4.10
2023-10-16T22:37:43.629Z,5.60
2023-10-16T22:40:17.598Z,4.30
2023-10-16T22:42:45.300Z,4.20
2023-10-16T22:45:17.142Z,4.00
2023-10-16T22:47:45.367Z,4.60
2023-10-16T22:50:12.994Z,4.20
2023-10-16T22:52:40.780Z,4.00
2023-10-16T22:55:09.299Z,4.50
2023-10-16T22:57:37.259Z,3.70
2023-10-16T23:00:13.613Z,3.70
2023-10-16T23:02:41.850Z,5.00
2023-10-16T23:05:15.506Z,3.70
2023-10-16T23:07:46.322Z,4.10
2023-10-16T23:10:15.083Z,4.00
2023-10-16T23:12:45.328Z,3.50
2023-10-16T23:15:21.019Z,3.70
2023-10-16T23:17:49.342Z,3.70
2023-10-16T23:20:25.918Z,4.10
2023-10-16T23:22:54.150Z,4.00
2023-10-16T23:25:22.316Z,3.90
2023-10-16T23:27:52.723Z,4.20
2023-10-16T23:30:23.469Z,3.40
2023-10-16T23:32:54.039Z,4.30
2023-10-16T23:35:26.623Z,3.60
2023-10-16T23:37:54.465Z,3.40
2023-10-16T23:40:34.233Z,4.20
2023-10-16T23:43:09.341Z,3.00
2023-10-16T23:45:38.793Z,3.20
2023-10-16T23:48:20.316Z,3.10
2023-10-16T23:50:52.097Z,3.40
2023-10-16T23:53:31.869Z,2.70
2023-10-16T23:56:11.189Z,3.80
2023-10-16T23:58:44.121Z,3.50
